METAR Data
IDs: Format: Raw Decoded Include TAF

Data at: 0037 UTC 19 Nov 2018

METAR for:PAKF (False Pass Arpt, AK, US)
Text:PAKF 182356Z AUTO 31020G31KT 5SM -RA SCT023 BKN028 OVC050 06/02 A2965 RMK AO2 PK WND 31031/2352 SLP041 P0002 60017 T00560017 10067 20044 51015
Temperature: 5.6°C ( 42°F)
Dewpoint: 1.7°C ( 35°F) [RH = 76%]
Pressure (altimeter):29.65 inches Hg (1004.1 mb) [Sea level pressure: 1004.1 mb]
Winds:from the NW (310 degrees) at 23 MPH (20 knots; 10.3 m/s) gusting to 36 MPH (31 knots; 15.9 m/s)
Visibility: 5 sm ( 8 km)
Ceiling:2800 feet AGL
Clouds: scattered clouds at 2300 feet AGL, broken clouds at 2800 feet AGL, overcast cloud deck at 5000 feet AGL
Weather:-RA (light rain)
QC Flag:automated observation with no human augmentation
Text:PAKF 182256Z AUTO 33014G25KT 10SM -RA BKN025 OVC070 06/02 A2965 RMK AO2 PK WND 32026/2230 SLP040 P0003 T00610017
Temperature: 6.1°C ( 43°F)
Dewpoint: 1.7°C ( 35°F) [RH = 73%]
Pressure (altimeter):29.65 inches Hg (1004.1 mb) [Sea level pressure: 1004.0 mb]
Winds:from the NNW (330 degrees) at 16 MPH (14 knots; 7.2 m/s) gusting to 29 MPH (25 knots; 12.9 m/s)
Visibility:10 or more sm (16+ km)
Ceiling:2500 feet AGL
Clouds: broken clouds at 2500 feet AGL, overcast cloud deck at 7000 feet AGL
Weather:-RA (light rain)
QC Flag:automated observation with no human augmentation
Text:PAKF 182204Z AUTO 33013G25KT 5SM -RA OVC020 05/02 A2963 RMK AO2 P0000
Temperature: 5.0°C ( 41°F)
Dewpoint: 2.0°C ( 36°F) [RH = 81%]
Pressure (altimeter):29.63 inches Hg (1003.5 mb)
Winds:from the NNW (330 degrees) at 15 MPH (13 knots; 6.7 m/s) gusting to 29 MPH (25 knots; 12.9 m/s)
Visibility: 5 sm ( 8 km)
Ceiling:2000 feet AGL
Clouds: overcast cloud deck at 2000 feet AGL
Weather:-RA (light rain)
QC Flag:automated observation with no human augmentation
Text:PAKF 182156Z AUTO 32015G24KT 280V350 2 1/2SM +RA SCT018 OVC023 05/02 A2964 RMK AO2 VIS 1 1/2V4 SLP037 P0012 T00500017
Temperature: 5.0°C ( 41°F)
Dewpoint: 1.7°C ( 35°F) [RH = 79%]
Pressure (altimeter):29.64 inches Hg (1003.8 mb) [Sea level pressure: 1003.7 mb]
Winds:from the NW (320 degrees) at 17 MPH (15 knots; 7.7 m/s) gusting to 28 MPH (24 knots; 12.3 m/s)
Visibility: 2.50 sm ( 4.02 km)
Ceiling:2300 feet AGL
Clouds: scattered clouds at 1800 feet AGL, overcast cloud deck at 2300 feet AGL
Weather:+RA (heavy rain)
QC Flag:automated observation with no human augmentation
Text:PAKF 182056Z AUTO 31010G17KT 9SM -RA BKN023 OVC029 06/02 A2961 RMK AO2 RAB1959 SLP027 P0000 60000 T00560022 51017
Temperature: 5.6°C ( 42°F)
Dewpoint: 2.2°C ( 36°F) [RH = 79%]
Pressure (altimeter):29.61 inches Hg (1002.8 mb) [Sea level pressure: 1002.7 mb]
Winds:from the NW (310 degrees) at 12 MPH (10 knots; 5.1 m/s) gusting to 20 MPH (17 knots; 8.7 m/s)
Visibility: 9 sm ( 14 km)
Ceiling:2300 feet AGL
Clouds: broken clouds at 2300 feet AGL, overcast cloud deck at 2900 feet AGL
Weather:-RA (light rain)
QC Flag:automated observation with no human augmentation
Text:PAKF 181956Z AUTO 27004G15KT 10SM BKN026 OVC031 06/02 A2960 RMK AO2 RAB26E49 SLP022 P0000 T00560017
Temperature: 5.6°C ( 42°F)
Dewpoint: 1.7°C ( 35°F) [RH = 76%]
Pressure (altimeter):29.60 inches Hg (1002.5 mb) [Sea level pressure: 1002.2 mb]
Winds:from the W (270 degrees) at 5 MPH (4 knots; 2.1 m/s) gusting to 17 MPH (15 knots; 7.7 m/s)
Visibility:10 or more sm (16+ km)
Ceiling:2600 feet AGL
Clouds: broken clouds at 2600 feet AGL, overcast cloud deck at 3100 feet AGL
QC Flag:automated observation with no human augmentation
Text:PAKF 181939Z AUTO 28009G16KT 10SM -RA FEW013 SCT023 BKN029 05/01 A2960 RMK AO2 RAB26 P0000
Temperature: 5.0°C ( 41°F)
Dewpoint: 1.0°C ( 34°F) [RH = 75%]
Pressure (altimeter):29.60 inches Hg (1002.5 mb)
Winds:from the W (280 degrees) at 10 MPH (9 knots; 4.6 m/s) gusting to 18 MPH (16 knots; 8.2 m/s)
Visibility:10 or more sm (16+ km)
Ceiling:2900 feet AGL
Clouds: few clouds at 1300 feet AGL, scattered clouds at 2300 feet AGL, broken clouds at 2900 feet AGL
Weather:-RA (light rain)
QC Flag:automated observation with no human augmentation
Text:PAKF 181856Z AUTO 23013G17KT 10SM BKN035 05/M01 A2958 RMK AO2 SLP017 T00501006
Temperature: 5.0°C ( 41°F)
Dewpoint: -0.6°C ( 31°F) [RH = 67%]
Pressure (altimeter):29.58 inches Hg (1001.8 mb) [Sea level pressure: 1001.7 mb]
Winds:from the SW (230 degrees) at 15 MPH (13 knots; 6.7 m/s) gusting to 20 MPH (17 knots; 8.7 m/s)
Visibility:10 or more sm (16+ km)
Ceiling:3500 feet AGL
Clouds: broken clouds at 3500 feet AGL
QC Flag:automated observation with no human augmentation

TAF for:PAKF (False Pass Arpt, AK, US)
Text:No data found